createdAt,value
2017-10-02T00:01:09.730Z,11.03
2017-10-02T00:03:39.275Z,18.70
2017-10-02T00:06:09.598Z,13.90
2017-10-02T00:08:38.707Z,9.30
2017-10-02T00:11:09.839Z,9.53
2017-10-02T00:13:39.401Z,12.90
2017-10-02T00:16:09.723Z,14.20
2017-10-02T00:18:38.821Z,7.90
2017-10-02T00:21:08.061Z,13.73
2017-10-02T00:23:38.165Z,16.53
2017-10-02T00:26:08.153Z,11.73
2017-10-02T00:28:37.297Z,11.20
2017-10-02T00:31:06.836Z,11.10
2017-10-02T00:33:37.403Z,11.63
2017-10-02T00:36:07.661Z,9.27
2017-10-02T00:38:37.698Z,10.20
2017-10-02T00:41:06.835Z,7.27
2017-10-02T00:43:36.019Z,12.00
2017-10-02T00:46:05.114Z,3.83
2017-10-02T00:48:34.207Z,12.17
2017-10-02T00:51:04.207Z,9.70
2017-10-02T00:53:34.149Z,9.87
2017-10-02T00:56:03.263Z,8.33
2017-10-02T00:58:32.992Z,13.27
2017-10-02T01:01:02.634Z,9.33
2017-10-02T01:03:31.989Z,10.57
2017-10-02T01:06:01.350Z,7.17
2017-10-02T01:08:30.529Z,10.20
2017-10-02T01:10:59.834Z,8.67
2017-10-02T01:13:29.368Z,8.50
2017-10-02T01:15:59.251Z,6.63
2017-10-02T01:18:28.422Z,15.60
2017-10-02T01:20:58.024Z,4.90
2017-10-02T01:23:27.257Z,14.40
2017-10-02T01:25:57.474Z,9.03
2017-10-02T01:28:26.779Z,15.43
2017-10-02T01:30:55.924Z,9.33
2017-10-02T01:33:25.092Z,18.47
2017-10-02T01:35:55.081Z,10.00
2017-10-02T01:38:24.284Z,10.33
2017-10-02T01:40:54.220Z,11.13
2017-10-02T01:43:23.831Z,6.90
2017-10-02T01:45:53.042Z,5.60
2017-10-02T01:48:22.172Z,7.83
2017-10-02T01:50:52.185Z,8.73
2017-10-02T01:53:21.379Z,11.90
2017-10-02T01:55:50.482Z,15.50
2017-10-02T01:58:21.546Z,10.30
2017-10-02T02:00:50.717Z,6.23
2017-10-02T02:03:19.840Z,5.67
2017-10-02T02:05:49.825Z,8.70
2017-10-02T02:08:19.689Z,6.63
2017-10-02T02:10:48.824Z,7.63
2017-10-02T02:13:17.962Z,5.90
2017-10-02T02:15:47.855Z,9.40
2017-10-02T02:18:16.957Z,15.73
2017-10-02T02:20:47.254Z,6.03
2017-10-02T02:23:17.135Z,2.63
2017-10-02T02:25:46.256Z,13.30
2017-10-02T02:28:15.481Z,6.40
2017-10-02T02:30:44.570Z,14.13
2017-10-02T02:33:13.687Z,5.57
2017-10-02T02:35:44.298Z,11.37
2017-10-02T02:38:14.151Z,5.37
2017-10-02T02:40:43.316Z,6.83
2017-10-02T02:43:12.526Z,6.10
2017-10-02T02:45:41.633Z,9.30
2017-10-02T02:48:11.523Z,7.07
2017-10-02T02:50:41.031Z,8.90
2017-10-02T02:53:10.124Z,11.83
2017-10-02T02:55:39.286Z,12.57
2017-10-02T02:58:08.653Z,6.50
2017-10-02T03:00:37.763Z,8.93
2017-10-02T03:03:07.655Z,10.97
2017-10-02T03:05:37.746Z,6.53
2017-10-02T03:08:06.847Z,11.70
2017-10-02T03:10:35.934Z,13.63
2017-10-02T03:13:05.062Z,7.13
2017-10-02T03:15:34.203Z,7.30
2017-10-02T03:18:03.334Z,8.50
2017-10-02T03:20:32.825Z,19.50
2017-10-02T03:23:01.923Z,10.17
2017-10-02T03:25:31.018Z,11.20
2017-10-02T03:28:00.987Z,13.57
2017-10-02T03:30:30.109Z,8.00
2017-10-02T03:32:59.254Z,7.80
2017-10-02T03:35:28.422Z,10.47
2017-10-02T03:37:57.599Z,8.13
2017-10-02T03:40:26.723Z,34.97
2017-10-02T03:42:56.326Z,10.03
2017-10-02T03:45:25.524Z,6.27
2017-10-02T03:47:54.612Z,13.47
2017-10-02T03:50:24.181Z,5.67
2017-10-02T03:52:53.373Z,11.77
2017-10-02T03:55:22.518Z,9.30
2017-10-02T03:57:51.687Z,7.00
2017-10-02T04:00:20.812Z,9.80
2017-10-02T04:02:49.962Z,12.43
2017-10-02T04:05:20.390Z,7.10
2017-10-02T04:07:50.299Z,6.03
2017-10-02T04:10:19.696Z,11.07
2017-10-02T04:12:49.156Z,16.33
2017-10-02T04:15:18.251Z,8.60
2017-10-02T04:17:48.110Z,13.03
2017-10-02T04:20:17.601Z,8.53
2017-10-02T04:22:46.719Z,8.60
2017-10-02T04:25:16.610Z,11.00
2017-10-02T04:27:45.879Z,8.20
2017-10-02T04:30:14.976Z,11.30
2017-10-02T04:32:44.821Z,10.83
2017-10-02T04:35:14.444Z,10.67
2017-10-02T04:37:44.105Z,13.73
2017-10-02T04:40:14.171Z,21.70
2017-10-02T04:42:44.171Z,18.43
2017-10-02T04:45:14.085Z,21.00
2017-10-02T04:47:43.198Z,10.97
2017-10-02T04:50:12.497Z,12.90
2017-10-02T04:52:41.612Z,12.80
2017-10-02T04:55:10.740Z,13.70
2017-10-02T04:57:40.042Z,14.17
2017-10-02T05:00:09.166Z,19.47
2017-10-02T05:02:39.058Z,20.00
2017-10-02T05:05:09.015Z,13.80
2017-10-02T05:07:38.148Z,11.30
2017-10-02T05:10:07.259Z,12.43
2017-10-02T05:12:36.513Z,15.13
2017-10-02T05:15:05.622Z,14.97
2017-10-02T05:17:34.758Z,14.33
2017-10-02T05:20:04.666Z,17.53
2017-10-02T05:22:33.757Z,16.00
2017-10-02T05:25:02.865Z,20.47
2017-10-02T05:27:32.051Z,20.90
2017-10-02T05:30:01.237Z,23.03
2017-10-02T05:32:30.496Z,12.97
2017-10-02T05:34:59.985Z,20.93
2017-10-02T05:37:29.205Z,20.37
2017-10-02T05:39:59.304Z,15.88
2017-10-02T05:42:28.597Z,13.85
2017-10-02T05:44:58.114Z,14.50
2017-10-02T05:47:28.120Z,23.33
2017-10-02T05:49:58.288Z,25.63
2017-10-02T05:52:27.492Z,23.30
2017-10-02T05:54:56.672Z,17.60
2017-10-02T05:57:25.960Z,14.87
2017-10-02T05:59:57.126Z,25.90
2017-10-02T06:02:26.690Z,22.97
2017-10-02T06:04:56.600Z,22.90
2017-10-02T06:07:25.949Z,16.17
2017-10-02T06:09:55.403Z,13.90
2017-10-02T06:12:24.705Z,21.08
2017-10-02T06:15:03.120Z,16.60
2017-10-02T06:17:32.446Z,21.87
2017-10-02T06:20:03.225Z,14.00
2017-10-02T06:22:32.399Z,15.73
2017-10-02T06:25:01.549Z,12.70
2017-10-02T06:27:30.758Z,11.30
2017-10-02T06:29:59.986Z,13.60
2017-10-02T06:32:29.104Z,10.93
2017-10-02T06:34:58.230Z,7.47
2017-10-02T06:37:27.428Z,9.73
2017-10-02T06:39:57.358Z,12.57
2017-10-02T06:42:28.061Z,12.40
2017-10-02T06:44:57.247Z,8.50
2017-10-02T06:47:27.172Z,8.20
2017-10-02T06:49:56.587Z,14.30
2017-10-02T06:52:25.743Z,13.40
2017-10-02T06:54:54.932Z,14.87
2017-10-02T06:57:24.134Z,17.63
2017-10-02T06:59:53.379Z,9.50
2017-10-02T07:02:22.582Z,12.17
2017-10-02T07:04:52.813Z,7.50
2017-10-02T07:07:22.915Z,9.77
2017-10-02T07:09:52.154Z,11.23
2017-10-02T07:12:21.762Z,7.57
2017-10-02T07:14:51.026Z,11.03
2017-10-02T07:17:20.161Z,6.30
2017-10-02T07:19:49.654Z,7.80
2017-10-02T07:22:18.754Z,7.53
2017-10-02T07:24:47.851Z,7.20
2017-10-02T07:27:17.780Z,7.80
2017-10-02T07:29:46.869Z,7.30
2017-10-02T07:32:15.970Z,10.83
2017-10-02T07:34:46.058Z,6.73
2017-10-02T07:37:15.163Z,5.10
2017-10-02T07:39:44.300Z,5.63
2017-10-02T07:42:13.674Z,5.13
2017-10-02T07:44:42.805Z,13.63
2017-10-02T07:47:11.913Z,6.07
2017-10-02T07:49:41.399Z,8.90
2017-10-02T07:52:11.299Z,7.03
2017-10-02T07:54:41.200Z,8.33
2017-10-02T07:57:10.780Z,9.20
2017-10-02T07:59:39.870Z,5.90
2017-10-02T08:02:09.743Z,6.87
2017-10-02T08:04:38.870Z,8.73
2017-10-02T08:07:07.982Z,8.20
2017-10-02T08:09:37.137Z,5.83
2017-10-02T08:12:06.436Z,5.60
2017-10-02T08:14:35.585Z,6.43
2017-10-02T08:17:05.511Z,9.63
2017-10-02T08:19:34.745Z,6.23
2017-10-02T08:22:03.886Z,4.50
2017-10-02T08:24:32.997Z,10.50
2017-10-02T08:27:02.266Z,9.20
2017-10-02T08:29:31.501Z,5.90
2017-10-02T08:32:01.516Z,6.80
2017-10-02T08:34:31.152Z,6.70
2017-10-02T08:37:00.322Z,6.37
2017-10-02T08:39:29.495Z,7.67
2017-10-02T08:41:58.846Z,8.60
2017-10-02T08:44:28.155Z,9.87
2017-10-02T08:46:57.558Z,8.30
2017-10-02T08:49:26.887Z,9.83
2017-10-02T08:51:56.001Z,8.30
2017-10-02T08:54:25.177Z,7.87
2017-10-02T08:56:54.729Z,11.47
2017-10-02T08:59:23.854Z,12.33
2017-10-02T09:01:53.269Z,20.40
2017-10-02T09:04:22.457Z,11.27
2017-10-02T09:06:51.779Z,12.50
2017-10-02T09:09:20.967Z,12.00
2017-10-02T09:11:51.309Z,16.30
2017-10-02T09:14:20.440Z,23.37
2017-10-02T09:16:50.091Z,16.60
2017-10-02T09:19:19.436Z,12.30
2017-10-02T09:21:48.540Z,17.40
2017-10-02T09:24:18.694Z,15.90
2017-10-02T09:26:48.097Z,13.83
2017-10-02T09:29:17.987Z,14.17
2017-10-02T09:31:47.669Z,14.57
2017-10-02T09:34:16.849Z,17.17
2017-10-02T09:36:45.985Z,23.53
2017-10-02T09:39:15.076Z,11.93
2017-10-02T09:41:45.059Z,12.50
2017-10-02T09:44:14.177Z,11.87
2017-10-02T09:46:43.527Z,10.67
2017-10-02T09:49:12.842Z,10.77
2017-10-02T09:51:41.974Z,14.17
2017-10-02T09:54:12.091Z,10.43
2017-10-02T09:56:41.334Z,14.53
2017-10-02T09:59:10.439Z,10.20
2017-10-02T10:01:39.534Z,14.20
2017-10-02T10:04:09.611Z,14.87
2017-10-02T10:06:38.713Z,11.93
2017-10-02T10:09:08.649Z,11.23
2017-10-02T10:11:38.181Z,8.73
2017-10-02T10:14:07.306Z,9.77
2017-10-02T10:16:38.006Z,10.13
2017-10-02T10:19:07.155Z,12.83
2017-10-02T10:21:36.265Z,8.67
2017-10-02T10:24:06.156Z,8.47
2017-10-02T10:26:35.555Z,9.80
2017-10-02T10:29:06.221Z,5.57
2017-10-02T10:31:35.353Z,5.37
2017-10-02T10:34:05.650Z,4.23
2017-10-02T10:36:34.759Z,6.00
2017-10-02T10:39:03.959Z,5.53
2017-10-02T10:41:33.239Z,7.13
2017-10-02T10:44:02.408Z,11.80
2017-10-02T10:46:31.513Z,11.13
2017-10-02T10:49:00.908Z,21.30
2017-10-02T10:51:30.053Z,21.43
2017-10-02T10:53:59.322Z,24.23
2017-10-02T10:56:28.592Z,25.23
2017-10-02T10:58:57.694Z,19.83
2017-10-02T11:01:26.855Z,35.73
2017-10-02T11:03:56.584Z,21.00
2017-10-02T11:06:25.809Z,19.50
2017-10-02T11:08:55.100Z,18.83
2017-10-02T11:11:24.429Z,35.90
2017-10-02T11:13:53.746Z,27.30
2017-10-02T11:16:23.151Z,30.50
2017-10-02T11:18:52.738Z,26.77
2017-10-02T11:21:22.757Z,21.97
2017-10-02T11:23:51.943Z,24.33
2017-10-02T11:26:22.243Z,29.30
2017-10-02T11:28:51.437Z,19.43
2017-10-02T11:31:20.533Z,18.10
2017-10-02T11:33:49.831Z,24.50
2017-10-02T11:36:18.935Z,30.70
2017-10-02T11:38:48.051Z,33.57
2017-10-02T11:41:17.223Z,30.50
2017-10-02T11:43:47.157Z,34.90
2017-10-02T11:46:17.072Z,34.10
2017-10-02T11:48:46.640Z,37.27
2017-10-02T11:51:17.397Z,29.03
2017-10-02T11:53:46.526Z,29.80
2017-10-02T11:56:15.865Z,26.60
2017-10-02T11:58:45.578Z,25.07
2017-10-02T12:01:14.675Z,55.13
2017-10-02T12:03:43.807Z,31.53
2017-10-02T12:06:13.695Z,24.97
2017-10-02T12:08:43.619Z,33.10
2017-10-02T12:11:13.067Z,26.73
2017-10-02T12:13:42.179Z,37.23
2017-10-02T12:16:11.318Z,21.57
2017-10-02T12:18:40.565Z,31.10
2017-10-02T12:21:09.742Z,27.37
2017-10-02T12:23:38.883Z,26.70
2017-10-02T12:26:08.107Z,32.53
2017-10-02T12:28:37.215Z,38.00
2017-10-02T12:31:06.369Z,33.97
2017-10-02T12:33:35.704Z,42.37
2017-10-02T12:36:05.215Z,25.67
2017-10-02T12:38:35.119Z,23.60
2017-10-02T12:41:04.389Z,21.80
2017-10-02T12:43:33.517Z,31.73
2017-10-02T12:46:02.645Z,27.63
2017-10-02T12:48:32.945Z,33.53
2017-10-02T12:51:02.051Z,28.50
2017-10-02T12:53:31.953Z,30.50
2017-10-02T12:56:01.159Z,24.37
2017-10-02T12:58:30.303Z,38.03
2017-10-02T13:00:59.462Z,40.80
2017-10-02T13:03:29.097Z,42.63
2017-10-02T13:05:58.242Z,27.73
2017-10-02T13:08:27.515Z,24.77
2017-10-02T13:10:56.669Z,24.50
2017-10-02T13:13:25.908Z,36.17
2017-10-02T13:15:55.069Z,35.77
2017-10-02T13:18:24.512Z,36.50
2017-10-02T13:20:53.683Z,50.10
2017-10-02T13:23:22.834Z,33.93
2017-10-02T13:25:52.739Z,40.07
2017-10-02T13:28:21.887Z,41.33
2017-10-02T13:30:51.075Z,33.83
2017-10-02T13:33:20.332Z,42.87
2017-10-02T13:35:50.356Z,36.23
2017-10-02T13:38:19.456Z,49.40
2017-10-02T13:40:48.618Z,42.63
2017-10-02T13:43:19.438Z,35.00
2017-10-02T13:45:48.614Z,40.00
2017-10-02T13:48:17.851Z,46.00
2017-10-02T13:50:46.947Z,46.60
2017-10-02T13:53:16.071Z,47.10
2017-10-02T13:55:45.240Z,29.60
2017-10-02T13:58:14.341Z,40.20
2017-10-02T14:00:43.432Z,41.17
2017-10-02T14:03:12.686Z,34.53
2017-10-02T14:05:41.786Z,37.17
2017-10-02T14:08:10.891Z,41.23
2017-10-02T14:10:40.221Z,41.87
2017-10-02T14:13:09.347Z,33.27
2017-10-02T14:15:38.451Z,52.10
2017-10-02T14:18:08.293Z,35.77
2017-10-02T14:20:37.395Z,48.73
2017-10-02T14:23:06.489Z,37.27
2017-10-02T14:25:35.782Z,33.97
2017-10-02T14:28:04.908Z,41.30
2017-10-02T14:30:34.097Z,33.77
2017-10-02T14:33:03.565Z,36.60
2017-10-02T14:35:32.730Z,26.10
2017-10-02T14:38:02.625Z,35.37
2017-10-02T14:40:31.771Z,36.50
2017-10-02T14:43:00.926Z,62.97
2017-10-02T14:45:30.152Z,43.60
2017-10-02T14:47:59.479Z,54.03
2017-10-02T14:50:28.884Z,53.30
2017-10-02T14:52:58.052Z,51.03
2017-10-02T14:55:29.421Z,44.57
2017-10-02T14:58:00.382Z,45.87
2017-10-02T15:00:29.578Z,45.57
2017-10-02T15:02:58.731Z,49.70
2017-10-02T15:05:27.931Z,48.73
2017-10-02T15:07:58.196Z,39.67
2017-10-02T15:10:27.631Z,55.07
2017-10-02T15:12:56.796Z,55.27
2017-10-02T15:15:26.048Z,30.33
2017-10-02T15:17:55.573Z,35.13
2017-10-02T15:20:25.637Z,60.17
2017-10-02T15:22:54.853Z,55.43
2017-10-02T15:25:24.477Z,45.53
2017-10-02T15:27:54.598Z,32.57
2017-10-02T15:30:23.765Z,47.67
2017-10-02T15:32:53.281Z,42.97
2017-10-02T15:35:22.462Z,31.30
2017-10-02T15:41:09.358Z,36.40
2017-10-02T15:43:38.477Z,27.60
2017-10-02T15:46:07.559Z,39.87
2017-10-02T15:48:38.507Z,48.53
2017-10-02T15:51:07.633Z,35.00
2017-10-02T15:53:37.450Z,28.33
2017-10-02T15:56:07.455Z,43.83
2017-10-02T15:58:36.554Z,41.70
2017-10-02T16:01:05.710Z,37.80
2017-10-02T16:03:35.420Z,29.83
2017-10-02T16:06:04.552Z,49.03
2017-10-02T16:08:35.311Z,20.73
2017-10-02T16:11:04.485Z,26.17
2017-10-02T16:13:35.116Z,33.53
2017-10-02T16:16:04.236Z,23.77
2017-10-02T16:18:33.512Z,30.03
2017-10-02T16:21:02.629Z,24.50
2017-10-02T16:23:31.789Z,36.90
2017-10-02T16:26:00.943Z,22.00
2017-10-02T16:28:30.051Z,28.43
2017-10-02T16:30:59.184Z,26.60
2017-10-02T16:33:29.595Z,30.33
2017-10-02T16:35:58.718Z,33.93
2017-10-02T16:38:27.883Z,31.47
2017-10-02T16:40:59.129Z,34.67
2017-10-02T16:43:29.045Z,32.10
2017-10-02T16:45:58.186Z,27.50
2017-10-02T16:48:27.873Z,35.40
2017-10-02T16:50:57.006Z,34.60
2017-10-02T16:53:26.988Z,34.97
2017-10-02T16:55:56.595Z,32.40
2017-10-02T16:58:25.780Z,39.00
2017-10-02T17:00:54.993Z,27.13
2017-10-02T17:03:24.419Z,30.33
2017-10-02T17:05:54.627Z,50.40
2017-10-02T17:08:25.893Z,49.50
2017-10-02T17:10:55.148Z,36.67
2017-10-02T17:13:25.217Z,26.70
2017-10-02T17:15:55.681Z,30.37
2017-10-02T17:18:25.605Z,28.37
2017-10-02T17:20:55.615Z,30.43
2017-10-02T17:23:26.608Z,35.87
2017-10-02T17:25:55.804Z,35.33
2017-10-02T17:28:25.980Z,24.83
2017-10-02T17:30:55.572Z,33.70
2017-10-02T17:33:24.729Z,19.97
2017-10-02T17:35:53.926Z,23.30
2017-10-02T17:38:23.962Z,31.13
2017-10-02T17:40:53.180Z,45.60
2017-10-02T17:43:22.467Z,24.97
2017-10-02T17:45:52.133Z,31.30
2017-10-02T17:48:23.020Z,31.60
2017-10-02T17:50:52.180Z,38.57
2017-10-02T17:53:22.102Z,17.53
2017-10-02T17:55:51.482Z,27.97
2017-10-02T17:58:20.798Z,36.73
2017-10-02T18:00:50.263Z,28.47
2017-10-02T18:03:19.530Z,42.37
2017-10-02T18:05:48.696Z,26.60
2017-10-02T18:08:18.674Z,40.23
2017-10-02T18:10:47.913Z,28.77
2017-10-02T18:13:17.228Z,37.57
2017-10-02T18:15:48.538Z,31.73
2017-10-02T18:18:18.299Z,41.57
2017-10-02T18:20:47.610Z,28.10
2017-10-02T18:23:18.244Z,42.17
2017-10-02T18:25:48.330Z,43.03
2017-10-02T18:28:17.596Z,31.53
2017-10-02T18:30:47.159Z,34.27
2017-10-02T18:33:18.693Z,19.50
2017-10-02T18:35:47.990Z,47.13
2017-10-02T18:38:17.190Z,29.00
2017-10-02T18:40:46.408Z,28.27
2017-10-02T18:43:15.612Z,27.20
2017-10-02T18:45:44.859Z,30.13
2017-10-02T18:48:13.968Z,23.80
2017-10-02T18:50:43.884Z,28.93
2017-10-02T18:53:14.342Z,45.33
2017-10-02T18:55:44.230Z,25.07
2017-10-02T18:58:13.396Z,36.33
2017-10-02T19:00:43.600Z,27.47
2017-10-02T19:03:12.697Z,27.80
2017-10-02T19:05:42.762Z,17.00
2017-10-02T19:08:12.982Z,43.50
2017-10-02T19:10:43.331Z,32.33
2017-10-02T19:13:13.312Z,22.53
2017-10-02T19:15:42.767Z,26.03
2017-10-02T19:18:11.892Z,24.80
2017-10-02T19:20:41.755Z,27.77
2017-10-02T19:23:10.929Z,18.63
2017-10-02T19:25:40.030Z,33.27
2017-10-02T19:28:09.123Z,27.80
2017-10-02T19:30:38.815Z,28.37
2017-10-02T19:33:08.910Z,26.93
2017-10-02T19:35:39.805Z,34.00
2017-10-02T19:38:08.890Z,31.20
2017-10-02T19:40:38.010Z,29.90
2017-10-02T19:43:07.430Z,38.33
2017-10-02T19:45:36.552Z,28.27
2017-10-02T19:48:06.468Z,27.73
2017-10-02T19:50:36.501Z,41.60
2017-10-02T19:53:05.604Z,35.33
2017-10-02T19:55:35.359Z,24.77
2017-10-02T19:58:04.799Z,27.03
2017-10-02T20:00:33.894Z,37.53
2017-10-02T20:03:03.001Z,17.70
2017-10-02T20:05:32.300Z,23.07
2017-10-02T20:08:01.396Z,29.43
2017-10-02T20:10:30.514Z,22.00
2017-10-02T20:13:00.354Z,32.10
2017-10-02T20:15:29.520Z,30.13
2017-10-02T20:17:58.615Z,17.87
2017-10-02T20:20:28.698Z,22.87
2017-10-02T20:22:57.838Z,29.93
2017-10-02T20:25:27.831Z,30.63
2017-10-02T20:27:57.114Z,27.97
2017-10-02T20:30:26.244Z,31.57
2017-10-02T20:32:56.488Z,25.40
2017-10-02T20:35:26.670Z,26.20
2017-10-02T20:37:56.533Z,26.77
2017-10-02T20:40:25.631Z,33.30
2017-10-02T20:42:56.734Z,36.07
2017-10-02T20:45:25.853Z,26.77
2017-10-02T20:47:56.610Z,34.10
2017-10-02T20:50:26.068Z,42.03
2017-10-02T20:52:55.191Z,38.17
2017-10-02T20:55:24.301Z,28.87
2017-10-02T20:57:53.740Z,26.90
2017-10-02T21:00:22.888Z,44.23
2017-10-02T21:02:52.059Z,36.90
2017-10-02T21:05:21.253Z,49.60
2017-10-02T21:07:50.400Z,28.40
2017-10-02T21:10:19.547Z,39.97
2017-10-02T21:12:50.382Z,33.43
2017-10-02T21:15:19.594Z,29.77
2017-10-02T21:17:48.881Z,19.37
2017-10-02T21:20:20.553Z,84.17
2017-10-02T21:22:49.706Z,26.63
2017-10-02T21:25:18.887Z,41.10
2017-10-02T21:27:48.717Z,27.73
2017-10-02T21:30:18.911Z,21.70
2017-10-02T21:32:48.337Z,32.37
2017-10-02T21:35:18.723Z,24.33
2017-10-02T21:37:47.907Z,32.90
2017-10-02T21:40:17.030Z,24.40
2017-10-02T21:42:47.207Z,40.17
2017-10-02T21:45:17.103Z,23.50
2017-10-02T21:47:46.334Z,27.50
2017-10-02T21:50:15.607Z,46.93
2017-10-02T21:52:44.718Z,31.40
2017-10-02T21:55:13.836Z,28.93
2017-10-02T21:57:43.284Z,39.87
2017-10-02T22:00:12.395Z,30.77
2017-10-02T22:02:41.477Z,36.07
2017-10-02T22:05:11.200Z,30.03
2017-10-02T22:07:40.293Z,28.93
2017-10-02T22:10:25.102Z,29.27
2017-10-02T22:12:56.065Z,27.33
2017-10-02T22:15:37.957Z,25.57
2017-10-02T22:18:08.837Z,40.23
2017-10-02T22:20:38.658Z,20.97
2017-10-02T22:23:16.455Z,15.20
2017-10-02T22:25:46.259Z,21.93
2017-10-02T22:28:17.693Z,30.40
2017-10-02T22:30:47.047Z,23.17
2017-10-02T22:33:17.152Z,34.07
2017-10-02T22:35:46.467Z,27.23
2017-10-02T22:38:15.952Z,15.17
2017-10-02T22:40:46.918Z,23.87
2017-10-02T22:43:16.490Z,16.13
2017-10-02T22:45:46.461Z,29.93
2017-10-02T22:48:17.530Z,19.67
2017-10-02T22:50:49.348Z,23.93
2017-10-02T22:53:19.346Z,26.50
2017-10-02T22:55:48.504Z,30.00
2017-10-02T22:58:18.509Z,23.27
2017-10-02T23:00:47.758Z,16.60
2017-10-02T23:03:17.928Z,24.27
2017-10-02T23:05:49.245Z,14.40
2017-10-02T23:08:18.506Z,25.03
2017-10-02T23:10:47.788Z,25.83
2017-10-02T23:13:17.801Z,27.67
2017-10-02T23:15:47.100Z,26.57
2017-10-02T23:18:16.552Z,16.37
2017-10-02T23:20:46.919Z,41.30
2017-10-02T23:23:16.052Z,22.23
2017-10-02T23:25:46.041Z,21.33
2017-10-02T23:28:15.776Z,30.63
2017-10-02T23:30:45.666Z,29.43
2017-10-02T23:33:16.124Z,22.10
2017-10-02T23:35:46.220Z,22.50
2017-10-02T23:38:15.361Z,20.27
2017-10-02T23:40:44.550Z,15.07
2017-10-02T23:43:14.331Z,35.23
2017-10-02T23:45:43.434Z,16.13
2017-10-02T23:48:12.533Z,9.40
2017-10-02T23:50:41.974Z,12.53
2017-10-02T23:53:11.077Z,8.10
2017-10-02T23:55:40.162Z,12.10
2017-10-02T23:58:09.315Z,25.60
